sensor_id;sensor_type;location;lat;lon;timestamp;P1;durP1;ratioP1;P2;durP2;ratioP2
55082;SDS011;40978;52.850;6.506;2022-10-31T00:00:23;19.38;;;13.38;;
55082;SDS011;40978;52.850;6.506;2022-10-31T00:02:48;32.05;;;18.48;;
55082;SDS011;40978;52.850;6.506;2022-10-31T00:05:14;19.52;;;13.57;;
55082;SDS011;40978;52.850;6.506;2022-10-31T00:07:42;29.05;;;17.42;;
55082;SDS011;40978;52.850;6.506;2022-10-31T00:10:08;32.33;;;17.80;;
55082;SDS011;40978;52.850;6.506;2022-10-31T00:12:34;20.17;;;14.65;;
55082;SDS011;40978;52.850;6.506;2022-10-31T00:14:59;25.27;;;16.58;;
55082;SDS011;40978;52.850;6.506;2022-10-31T00:17:25;28.40;;;16.00;;
55082;SDS011;40978;52.850;6.506;2022-10-31T00:19:51;23.42;;;14.02;;
55082;SDS011;40978;52.850;6.506;2022-10-31T00:22:16;27.30;;;15.07;;
55082;SDS011;40978;52.850;6.506;2022-10-31T00:24:42;23.70;;;14.73;;
55082;SDS011;40978;52.850;6.506;2022-10-31T00:27:08;20.00;;;13.55;;
55082;SDS011;40978;52.850;6.506;2022-10-31T00:29:33;23.25;;;15.68;;
55082;SDS011;40978;52.850;6.506;2022-10-31T00:31:59;31.92;;;16.30;;
55082;SDS011;40978;52.850;6.506;2022-10-31T00:34:25;20.23;;;12.75;;
55082;SDS011;40978;52.850;6.506;2022-10-31T00:36:50;22.23;;;13.35;;
55082;SDS011;40978;52.850;6.506;2022-10-31T00:39:16;23.05;;;13.23;;
55082;SDS011;40978;52.850;6.506;2022-10-31T00:41:42;23.00;;;12.63;;
55082;SDS011;40978;52.850;6.506;2022-10-31T00:44:07;24.05;;;13.85;;
55082;SDS011;40978;52.850;6.506;2022-10-31T00:46:33;21.17;;;13.18;;
55082;SDS011;40978;52.850;6.506;2022-10-31T00:48:58;18.90;;;11.18;;
55082;SDS011;40978;52.850;6.506;2022-10-31T00:51:24;21.40;;;11.88;;
55082;SDS011;40978;52.850;6.506;2022-10-31T00:53:50;19.65;;;12.07;;
55082;SDS011;40978;52.850;6.506;2022-10-31T00:56:15;19.77;;;11.50;;
55082;SDS011;40978;52.850;6.506;2022-10-31T00:58:41;22.05;;;14.32;;
55082;SDS011;40978;52.850;6.506;2022-10-31T01:01:07;20.05;;;12.20;;
55082;SDS011;40978;52.850;6.506;2022-10-31T01:03:33;16.13;;;11.90;;
55082;SDS011;40978;52.850;6.506;2022-10-31T01:06:03;32.58;;;16.23;;
55082;SDS011;40978;52.850;6.506;2022-10-31T01:08:31;23.45;;;14.15;;
55082;SDS011;40978;52.850;6.506;2022-10-31T01:11:09;23.10;;;13.45;;
55082;SDS011;40978;52.850;6.506;2022-10-31T01:13:40;20.50;;;13.05;;
55082;SDS011;40978;52.850;6.506;2022-10-31T01:16:07;20.65;;;13.65;;
55082;SDS011;40978;52.850;6.506;2022-10-31T01:18:35;17.98;;;13.13;;
55082;SDS011;40978;52.850;6.506;2022-10-31T01:21:08;22.95;;;14.80;;
55082;SDS011;40978;52.850;6.506;2022-10-31T01:23:36;25.95;;;16.00;;
55082;SDS011;40978;52.850;6.506;2022-10-31T01:26:13;28.35;;;17.17;;
55082;SDS011;40978;52.850;6.506;2022-10-31T01:28:45;28.30;;;16.13;;
55082;SDS011;40978;52.850;6.506;2022-10-31T01:31:12;24.13;;;14.93;;
55082;SDS011;40978;52.850;6.506;2022-10-31T01:33:38;26.15;;;16.27;;
55082;SDS011;40978;52.850;6.506;2022-10-31T01:36:18;32.90;;;18.80;;
55082;SDS011;40978;52.850;6.506;2022-10-31T01:38:48;31.55;;;19.58;;
55082;SDS011;40978;52.850;6.506;2022-10-31T01:41:16;25.45;;;16.23;;
55082;SDS011;40978;52.850;6.506;2022-10-31T01:43:44;25.50;;;16.08;;
55082;SDS011;40978;52.850;6.506;2022-10-31T01:46:12;22.00;;;15.73;;
55082;SDS011;40978;52.850;6.506;2022-10-31T01:48:40;26.02;;;16.17;;
55082;SDS011;40978;52.850;6.506;2022-10-31T01:51:06;17.83;;;14.32;;
55082;SDS011;40978;52.850;6.506;2022-10-31T01:53:33;23.27;;;16.23;;
55082;SDS011;40978;52.850;6.506;2022-10-31T01:56:00;24.33;;;16.17;;
55082;SDS011;40978;52.850;6.506;2022-10-31T01:58:27;19.90;;;13.52;;
55082;SDS011;40978;52.850;6.506;2022-10-31T02:00:57;23.42;;;14.75;;
55082;SDS011;40978;52.850;6.506;2022-10-31T02:03:25;21.48;;;15.13;;
55082;SDS011;40978;52.850;6.506;2022-10-31T02:05:53;23.08;;;15.07;;
55082;SDS011;40978;52.850;6.506;2022-10-31T02:08:29;19.10;;;15.13;;
55082;SDS011;40978;52.850;6.506;2022-10-31T02:10:58;28.38;;;17.33;;
55082;SDS011;40978;52.850;6.506;2022-10-31T02:13:25;23.25;;;15.45;;
55082;SDS011;40978;52.850;6.506;2022-10-31T02:15:54;22.45;;;14.90;;
55082;SDS011;40978;52.850;6.506;2022-10-31T02:18:21;24.05;;;15.27;;
55082;SDS011;40978;52.850;6.506;2022-10-31T02:23:33;26.88;;;15.98;;
55082;SDS011;40978;52.850;6.506;2022-10-31T02:29:28;19.60;;;14.50;;
55082;SDS011;40978;52.850;6.506;2022-10-31T02:32:28;24.73;;;15.32;;
55082;SDS011;40978;52.850;6.506;2022-10-31T02:35:03;17.48;;;13.48;;
55082;SDS011;40978;52.850;6.506;2022-10-31T02:40:59;20.25;;;13.43;;
55082;SDS011;40978;52.850;6.506;2022-10-31T02:43:54;22.20;;;13.75;;
55082;SDS011;40978;52.850;6.506;2022-10-31T02:46:28;24.58;;;14.63;;
55082;SDS011;40978;52.850;6.506;2022-10-31T02:52:18;19.98;;;13.10;;
55082;SDS011;40978;52.850;6.506;2022-10-31T02:54:51;18.10;;;12.95;;
55082;SDS011;40978;52.850;6.506;2022-10-31T02:57:24;19.92;;;13.02;;
55082;SDS011;40978;52.850;6.506;2022-10-31T02:59:55;18.98;;;14.45;;
55082;SDS011;40978;52.850;6.506;2022-10-31T03:05:23;21.65;;;13.52;;
55082;SDS011;40978;52.850;6.506;2022-10-31T03:13:20;19.48;;;12.45;;
55082;SDS011;40978;52.850;6.506;2022-10-31T03:15:53;25.70;;;14.73;;
55082;SDS011;40978;52.850;6.506;2022-10-31T03:18:28;17.70;;;12.38;;
55082;SDS011;40978;52.850;6.506;2022-10-31T03:23:46;19.35;;;12.27;;
55082;SDS011;40978;52.850;6.506;2022-10-31T03:26:15;19.52;;;13.38;;
55082;SDS011;40978;52.850;6.506;2022-10-31T03:28:46;19.40;;;12.80;;
55082;SDS011;40978;52.850;6.506;2022-10-31T03:31:15;15.63;;;12.38;;
55082;SDS011;40978;52.850;6.506;2022-10-31T03:33:43;18.90;;;12.80;;
55082;SDS011;40978;52.850;6.506;2022-10-31T03:36:11;17.38;;;12.75;;
55082;SDS011;40978;52.850;6.506;2022-10-31T03:38:39;19.02;;;13.07;;
55082;SDS011;40978;52.850;6.506;2022-10-31T03:41:07;19.25;;;12.07;;
55082;SDS011;40978;52.850;6.506;2022-10-31T03:43:38;14.95;;;11.77;;
55082;SDS011;40978;52.850;6.506;2022-10-31T03:46:08;20.30;;;11.40;;
55082;SDS011;40978;52.850;6.506;2022-10-31T03:48:34;23.65;;;13.98;;
55082;SDS011;40978;52.850;6.506;2022-10-31T03:56:33;22.35;;;14.55;;
55082;SDS011;40978;52.850;6.506;2022-10-31T03:59:02;27.63;;;14.95;;
55082;SDS011;40978;52.850;6.506;2022-10-31T04:01:36;21.00;;;12.73;;
55082;SDS011;40978;52.850;6.506;2022-10-31T04:04:06;24.65;;;15.30;;
55082;SDS011;40978;52.850;6.506;2022-10-31T04:06:33;18.95;;;13.18;;
55082;SDS011;40978;52.850;6.506;2022-10-31T04:09:02;23.20;;;13.55;;
55082;SDS011;40978;52.850;6.506;2022-10-31T04:11:31;22.77;;;14.13;;
55082;SDS011;40978;52.850;6.506;2022-10-31T04:14:00;17.65;;;13.68;;
55082;SDS011;40978;52.850;6.506;2022-10-31T04:16:29;20.65;;;13.45;;
55082;SDS011;40978;52.850;6.506;2022-10-31T04:18:55;19.63;;;13.25;;
55082;SDS011;40978;52.850;6.506;2022-10-31T04:21:26;20.55;;;13.60;;
55082;SDS011;40978;52.850;6.506;2022-10-31T04:23:53;18.00;;;12.90;;
55082;SDS011;40978;52.850;6.506;2022-10-31T04:26:19;26.00;;;16.27;;
55082;SDS011;40978;52.850;6.506;2022-10-31T04:28:45;27.33;;;14.63;;
55082;SDS011;40978;52.850;6.506;2022-10-31T04:31:11;16.95;;;13.63;;
55082;SDS011;40978;52.850;6.506;2022-10-31T04:33:37;21.27;;;13.00;;
55082;SDS011;40978;52.850;6.506;2022-10-31T04:36:03;19.00;;;15.23;;
55082;SDS011;40978;52.850;6.506;2022-10-31T04:38:29;23.70;;;13.73;;
55082;SDS011;40978;52.850;6.506;2022-10-31T04:40:55;19.23;;;14.13;;
55082;SDS011;40978;52.850;6.506;2022-10-31T04:43:21;21.85;;;14.65;;
55082;SDS011;40978;52.850;6.506;2022-10-31T04:45:47;14.93;;;13.00;;
55082;SDS011;40978;52.850;6.506;2022-10-31T04:48:12;22.05;;;13.52;;
55082;SDS011;40978;52.850;6.506;2022-10-31T04:50:38;18.05;;;13.77;;
55082;SDS011;40978;52.850;6.506;2022-10-31T04:53:04;22.15;;;15.65;;
55082;SDS011;40978;52.850;6.506;2022-10-31T04:55:30;20.73;;;13.32;;
55082;SDS011;40978;52.850;6.506;2022-10-31T04:57:55;16.85;;;13.20;;
55082;SDS011;40978;52.850;6.506;2022-10-31T05:00:21;24.33;;;14.98;;
55082;SDS011;40978;52.850;6.506;2022-10-31T05:02:51;23.63;;;15.70;;
55082;SDS011;40978;52.850;6.506;2022-10-31T05:05:20;17.70;;;13.30;;
55082;SDS011;40978;52.850;6.506;2022-10-31T05:07:48;18.90;;;14.40;;
55082;SDS011;40978;52.850;6.506;2022-10-31T05:10:15;20.42;;;13.77;;
55082;SDS011;40978;52.850;6.506;2022-10-31T05:12:47;16.77;;;12.82;;
55082;SDS011;40978;52.850;6.506;2022-10-31T05:15:14;14.80;;;12.55;;
55082;SDS011;40978;52.850;6.506;2022-10-31T05:17:40;14.88;;;11.90;;
55082;SDS011;40978;52.850;6.506;2022-10-31T05:20:06;18.13;;;13.90;;
55082;SDS011;40978;52.850;6.506;2022-10-31T05:22:32;29.17;;;17.05;;
55082;SDS011;40978;52.850;6.506;2022-10-31T05:24:59;17.67;;;12.60;;
55082;SDS011;40978;52.850;6.506;2022-10-31T05:27:24;16.98;;;12.63;;
55082;SDS011;40978;52.850;6.506;2022-10-31T05:29:50;14.05;;;12.23;;
55082;SDS011;40978;52.850;6.506;2022-10-31T05:32:16;23.88;;;14.00;;
55082;SDS011;40978;52.850;6.506;2022-10-31T05:34:41;20.30;;;15.50;;
55082;SDS011;40978;52.850;6.506;2022-10-31T05:37:07;19.40;;;14.07;;
55082;SDS011;40978;52.850;6.506;2022-10-31T05:39:33;18.27;;;13.57;;
55082;SDS011;40978;52.850;6.506;2022-10-31T05:41:58;28.63;;;18.05;;
55082;SDS011;40978;52.850;6.506;2022-10-31T05:44:24;17.88;;;14.40;;
55082;SDS011;40978;52.850;6.506;2022-10-31T05:46:50;22.92;;;13.68;;
55082;SDS011;40978;52.850;6.506;2022-10-31T05:49:16;15.70;;;12.45;;
55082;SDS011;40978;52.850;6.506;2022-10-31T05:51:42;14.77;;;11.88;;
55082;SDS011;40978;52.850;6.506;2022-10-31T05:54:08;14.90;;;11.70;;
55082;SDS011;40978;52.850;6.506;2022-10-31T05:56:33;25.35;;;13.35;;
55082;SDS011;40978;52.850;6.506;2022-10-31T05:58:59;16.15;;;11.98;;
55082;SDS011;40978;52.850;6.506;2022-10-31T06:01:25;27.08;;;14.52;;
55082;SDS011;40978;52.850;6.506;2022-10-31T06:03:50;15.50;;;11.43;;
55082;SDS011;40978;52.850;6.506;2022-10-31T06:06:16;17.63;;;11.18;;
55082;SDS011;40978;52.850;6.506;2022-10-31T06:08:42;19.33;;;11.93;;
55082;SDS011;40978;52.850;6.506;2022-10-31T06:11:07;17.20;;;10.50;;
55082;SDS011;40978;52.850;6.506;2022-10-31T06:13:33;15.70;;;11.63;;
55082;SDS011;40978;52.850;6.506;2022-10-31T06:15:59;16.20;;;10.45;;
55082;SDS011;40978;52.850;6.506;2022-10-31T06:18:25;14.57;;;10.05;;
55082;SDS011;40978;52.850;6.506;2022-10-31T06:20:50;17.27;;;10.32;;
55082;SDS011;40978;52.850;6.506;2022-10-31T06:23:16;26.30;;;12.15;;
55082;SDS011;40978;52.850;6.506;2022-10-31T06:25:41;27.25;;;12.70;;
55082;SDS011;40978;52.850;6.506;2022-10-31T06:28:07;14.32;;;9.60;;
55082;SDS011;40978;52.850;6.506;2022-10-31T06:30:33;15.80;;;9.10;;
55082;SDS011;40978;52.850;6.506;2022-10-31T06:33:02;12.40;;;9.25;;
55082;SDS011;40978;52.850;6.506;2022-10-31T06:35:31;28.02;;;12.52;;
55082;SDS011;40978;52.850;6.506;2022-10-31T06:37:57;17.13;;;11.20;;
55082;SDS011;40978;52.850;6.506;2022-10-31T06:40:23;49.90;;;15.02;;
55082;SDS011;40978;52.850;6.506;2022-10-31T06:43:01;111.43;;;20.25;;
55082;SDS011;40978;52.850;6.506;2022-10-31T06:45:26;35.22;;;13.23;;
55082;SDS011;40978;52.850;6.506;2022-10-31T06:47:53;18.92;;;10.93;;
55082;SDS011;40978;52.850;6.506;2022-10-31T06:50:20;71.72;;;12.45;;
55082;SDS011;40978;52.850;6.506;2022-10-31T06:52:53;104.28;;;19.98;;
55082;SDS011;40978;52.850;6.506;2022-10-31T06:55:20;177.85;;;25.00;;
55082;SDS011;40978;52.850;6.506;2022-10-31T06:57:51;214.77;;;29.83;;
55082;SDS011;40978;52.850;6.506;2022-10-31T07:00:20;52.67;;;13.65;;
55082;SDS011;40978;52.850;6.506;2022-10-31T07:02:56;18.55;;;12.02;;
55082;SDS011;40978;52.850;6.506;2022-10-31T07:05:30;291.67;;;43.28;;
55082;SDS011;40978;52.850;6.506;2022-10-31T07:07:57;101.35;;;18.77;;
55082;SDS011;40978;52.850;6.506;2022-10-31T07:10:25;207.57;;;33.85;;
55082;SDS011;40978;52.850;6.506;2022-10-31T07:12:59;158.15;;;28.55;;
55082;SDS011;40978;52.850;6.506;2022-10-31T07:15:27;97.22;;;20.50;;
55082;SDS011;40978;52.850;6.506;2022-10-31T07:17:53;87.70;;;16.10;;
55082;SDS011;40978;52.850;6.506;2022-10-31T07:20:23;53.83;;;16.42;;
55082;SDS011;40978;52.850;6.506;2022-10-31T07:22:49;108.65;;;23.48;;
55082;SDS011;40978;52.850;6.506;2022-10-31T07:25:15;99.55;;;25.30;;
55082;SDS011;40978;52.850;6.506;2022-10-31T07:27:41;43.67;;;16.98;;
55082;SDS011;40978;52.850;6.506;2022-10-31T07:30:09;59.28;;;21.38;;
55082;SDS011;40978;52.850;6.506;2022-10-31T07:32:39;21.55;;;16.40;;
55082;SDS011;40978;52.850;6.506;2022-10-31T07:35:09;34.13;;;18.77;;
55082;SDS011;40978;52.850;6.506;2022-10-31T07:37:43;20.25;;;16.02;;
55082;SDS011;40978;52.850;6.506;2022-10-31T07:40:09;24.83;;;18.52;;
55082;SDS011;40978;52.850;6.506;2022-10-31T07:42:35;22.33;;;17.20;;
55082;SDS011;40978;52.850;6.506;2022-10-31T07:45:03;17.38;;;14.77;;
55082;SDS011;40978;52.850;6.506;2022-10-31T07:47:29;24.73;;;16.27;;
55082;SDS011;40978;52.850;6.506;2022-10-31T07:49:55;18.63;;;14.27;;
55082;SDS011;40978;52.850;6.506;2022-10-31T07:52:21;17.88;;;13.88;;
55082;SDS011;40978;52.850;6.506;2022-10-31T07:54:46;19.60;;;13.73;;
55082;SDS011;40978;52.850;6.506;2022-10-31T07:57:12;15.70;;;12.82;;
55082;SDS011;40978;52.850;6.506;2022-10-31T07:59:38;11.65;;;10.20;;
55082;SDS011;40978;52.850;6.506;2022-10-31T08:02:03;14.63;;;10.43;;
55082;SDS011;40978;52.850;6.506;2022-10-31T08:04:29;10.90;;;9.90;;
55082;SDS011;40978;52.850;6.506;2022-10-31T08:06:54;10.05;;;9.05;;
55082;SDS011;40978;52.850;6.506;2022-10-31T08:09:20;10.70;;;9.70;;
55082;SDS011;40978;52.850;6.506;2022-10-31T08:11:46;9.88;;;8.95;;
55082;SDS011;40978;52.850;6.506;2022-10-31T08:14:11;10.38;;;9.30;;
55082;SDS011;40978;52.850;6.506;2022-10-31T08:16:37;12.13;;;9.48;;
55082;SDS011;40978;52.850;6.506;2022-10-31T08:19:03;11.35;;;9.93;;
55082;SDS011;40978;52.850;6.506;2022-10-31T08:21:28;13.00;;;10.45;;
55082;SDS011;40978;52.850;6.506;2022-10-31T08:23:54;14.25;;;11.23;;
55082;SDS011;40978;52.850;6.506;2022-10-31T08:26:20;13.13;;;10.73;;
55082;SDS011;40978;52.850;6.506;2022-10-31T08:28:45;15.20;;;12.13;;
55082;SDS011;40978;52.850;6.506;2022-10-31T08:31:11;14.27;;;12.77;;
55082;SDS011;40978;52.850;6.506;2022-10-31T08:33:37;15.80;;;12.75;;
55082;SDS011;40978;52.850;6.506;2022-10-31T08:36:03;15.55;;;13.23;;
55082;SDS011;40978;52.850;6.506;2022-10-31T08:38:28;14.45;;;12.43;;
55082;SDS011;40978;52.850;6.506;2022-10-31T08:40:54;16.60;;;13.88;;
55082;SDS011;40978;52.850;6.506;2022-10-31T08:43:20;14.68;;;13.18;;
55082;SDS011;40978;52.850;6.506;2022-10-31T08:45:48;16.33;;;12.88;;
55082;SDS011;40978;52.850;6.506;2022-10-31T08:48:15;16.38;;;13.25;;
55082;SDS011;40978;52.850;6.506;2022-10-31T08:50:42;13.70;;;12.30;;
55082;SDS011;40978;52.850;6.506;2022-10-31T08:53:15;14.98;;;13.43;;
55082;SDS011;40978;52.850;6.506;2022-10-31T08:55:43;18.83;;;13.88;;
55082;SDS011;40978;52.850;6.506;2022-10-31T08:58:10;14.45;;;12.93;;
55082;SDS011;40978;52.850;6.506;2022-10-31T09:00:38;17.48;;;14.57;;
55082;SDS011;40978;52.850;6.506;2022-10-31T09:03:12;16.45;;;14.85;;
55082;SDS011;40978;52.850;6.506;2022-10-31T09:05:40;15.45;;;13.27;;
55082;SDS011;40978;52.850;6.506;2022-10-31T09:08:06;16.00;;;13.98;;
55082;SDS011;40978;52.850;6.506;2022-10-31T09:10:33;19.92;;;15.15;;
55082;SDS011;40978;52.850;6.506;2022-10-31T09:13:10;16.00;;;14.40;;
55082;SDS011;40978;52.850;6.506;2022-10-31T09:15:41;16.10;;;14.40;;
55082;SDS011;40978;52.850;6.506;2022-10-31T09:18:09;15.75;;;13.70;;
55082;SDS011;40978;52.850;6.506;2022-10-31T09:20:36;13.80;;;12.40;;
55082;SDS011;40978;52.850;6.506;2022-10-31T09:23:12;14.48;;;13.07;;
55082;SDS011;40978;52.850;6.506;2022-10-31T09:25:40;16.35;;;13.30;;
55082;SDS011;40978;52.850;6.506;2022-10-31T09:28:08;15.13;;;13.52;;
55082;SDS011;40978;52.850;6.506;2022-10-31T09:30:35;15.15;;;13.65;;
55082;SDS011;40978;52.850;6.506;2022-10-31T09:33:06;14.65;;;12.93;;
55082;SDS011;40978;52.850;6.506;2022-10-31T09:35:36;18.02;;;14.90;;
55082;SDS011;40978;52.850;6.506;2022-10-31T09:38:06;15.40;;;14.00;;
55082;SDS011;40978;52.850;6.506;2022-10-31T09:43:44;16.45;;;14.23;;
55082;SDS011;40978;52.850;6.506;2022-10-31T09:57:29;17.27;;;15.15;;
55082;SDS011;40978;52.850;6.506;2022-10-31T10:00:01;17.42;;;15.82;;
55082;SDS011;40978;52.850;6.506;2022-10-31T10:02:36;16.90;;;15.23;;
55082;SDS011;40978;52.850;6.506;2022-10-31T10:05:10;17.75;;;16.08;;
55082;SDS011;40978;52.850;6.506;2022-10-31T10:13:19;19.35;;;16.92;;
55082;SDS011;40978;52.850;6.506;2022-10-31T10:18:41;20.80;;;17.58;;
55082;SDS011;40978;52.850;6.506;2022-10-31T10:24:12;18.27;;;16.27;;
55082;SDS011;40978;52.850;6.506;2022-10-31T10:27:21;21.75;;;19.55;;
55082;SDS011;40978;52.850;6.506;2022-10-31T10:29:57;21.88;;;18.65;;
55082;SDS011;40978;52.850;6.506;2022-10-31T10:32:29;19.27;;;17.38;;
55082;SDS011;40978;52.850;6.506;2022-10-31T10:35:07;18.85;;;16.92;;
55082;SDS011;40978;52.850;6.506;2022-10-31T10:37:42;19.45;;;17.40;;
55082;SDS011;40978;52.850;6.506;2022-10-31T10:45:46;17.40;;;15.60;;
55082;SDS011;40978;52.850;6.506;2022-10-31T10:51:28;16.23;;;14.52;;
55082;SDS011;40978;52.850;6.506;2022-10-31T10:59:25;13.02;;;11.65;;
55082;SDS011;40978;52.850;6.506;2022-10-31T11:01:52;13.70;;;12.30;;
55082;SDS011;40978;52.850;6.506;2022-10-31T11:07:00;13.68;;;12.10;;
55082;SDS011;40978;52.850;6.506;2022-10-31T11:09:29;13.13;;;11.55;;
55082;SDS011;40978;52.850;6.506;2022-10-31T11:11:55;13.05;;;11.20;;
55082;SDS011;40978;52.850;6.506;2022-10-31T11:14:23;14.18;;;11.82;;
55082;SDS011;40978;52.850;6.506;2022-10-31T11:16:51;13.50;;;12.10;;
55082;SDS011;40978;52.850;6.506;2022-10-31T11:19:31;13.48;;;11.20;;
55082;SDS011;40978;52.850;6.506;2022-10-31T11:22:05;12.85;;;11.35;;
55082;SDS011;40978;52.850;6.506;2022-10-31T11:24:41;15.10;;;11.88;;
55082;SDS011;40978;52.850;6.506;2022-10-31T11:27:19;12.82;;;11.38;;
55082;SDS011;40978;52.850;6.506;2022-10-31T11:29:47;13.95;;;11.85;;
55082;SDS011;40978;52.850;6.506;2022-10-31T11:34:48;14.32;;;11.70;;
55082;SDS011;40978;52.850;6.506;2022-10-31T11:37:27;14.05;;;12.50;;
55082;SDS011;40978;52.850;6.506;2022-10-31T11:39:56;13.45;;;10.88;;
55082;SDS011;40978;52.850;6.506;2022-10-31T11:42:27;16.58;;;12.27;;
55082;SDS011;40978;52.850;6.506;2022-10-31T11:44:59;13.20;;;11.80;;
55082;SDS011;40978;52.850;6.506;2022-10-31T11:47:30;13.90;;;12.38;;
55082;SDS011;40978;52.850;6.506;2022-10-31T11:49:57;13.45;;;11.80;;
55082;SDS011;40978;52.850;6.506;2022-10-31T11:52:28;13.82;;;12.00;;
55082;SDS011;40978;52.850;6.506;2022-10-31T11:57:48;16.30;;;11.70;;
55082;SDS011;40978;52.850;6.506;2022-10-31T12:02:48;15.82;;;11.00;;
55082;SDS011;40978;52.850;6.506;2022-10-31T12:05:18;14.25;;;10.77;;
55082;SDS011;40978;52.850;6.506;2022-10-31T12:07:45;14.70;;;10.63;;
55082;SDS011;40978;52.850;6.506;2022-10-31T12:10:11;12.23;;;9.85;;
55082;SDS011;40978;52.850;6.506;2022-10-31T12:20:23;12.63;;;9.43;;
55082;SDS011;40978;52.850;6.506;2022-10-31T12:31:31;16.13;;;9.73;;
55082;SDS011;40978;52.850;6.506;2022-10-31T12:37:23;12.50;;;9.20;;
55082;SDS011;40978;52.850;6.506;2022-10-31T12:45:31;16.40;;;9.13;;
55082;SDS011;40978;52.850;6.506;2022-10-31T12:53:44;15.52;;;9.40;;
55082;SDS011;40978;52.850;6.506;2022-10-31T12:56:31;14.32;;;9.98;;
55082;SDS011;40978;52.850;6.506;2022-10-31T12:59:35;13.27;;;10.25;;
55082;SDS011;40978;52.850;6.506;2022-10-31T13:04:44;16.08;;;10.63;;
55082;SDS011;40978;52.850;6.506;2022-10-31T13:07:42;15.23;;;10.35;;
55082;SDS011;40978;52.850;6.506;2022-10-31T13:10:20;16.80;;;11.30;;
55082;SDS011;40978;52.850;6.506;2022-10-31T13:12:50;14.10;;;10.60;;
55082;SDS011;40978;52.850;6.506;2022-10-31T13:15:29;14.65;;;10.18;;
55082;SDS011;40978;52.850;6.506;2022-10-31T13:18:09;14.35;;;10.20;;
55082;SDS011;40978;52.850;6.506;2022-10-31T13:20:41;16.90;;;9.77;;
55082;SDS011;40978;52.850;6.506;2022-10-31T13:23:29;16.23;;;9.73;;
55082;SDS011;40978;52.850;6.506;2022-10-31T13:25:58;15.23;;;9.40;;
55082;SDS011;40978;52.850;6.506;2022-10-31T13:28:45;14.18;;;9.13;;
55082;SDS011;40978;52.850;6.506;2022-10-31T13:31:14;13.00;;;9.13;;
55082;SDS011;40978;52.850;6.506;2022-10-31T13:33:46;14.00;;;8.40;;
55082;SDS011;40978;52.850;6.506;2022-10-31T13:37:23;15.18;;;9.00;;
55082;SDS011;40978;52.850;6.506;2022-10-31T13:42:04;11.65;;;7.22;;
55082;SDS011;40978;52.850;6.506;2022-10-31T13:44:44;10.30;;;6.82;;
55082;SDS011;40978;52.850;6.506;2022-10-31T13:47:30;10.27;;;6.38;;
55082;SDS011;40978;52.850;6.506;2022-10-31T13:52:42;10.43;;;6.30;;
55082;SDS011;40978;52.850;6.506;2022-10-31T13:55:34;8.63;;;6.30;;
55082;SDS011;40978;52.850;6.506;2022-10-31T13:58:53;11.93;;;7.10;;
55082;SDS011;40978;52.850;6.506;2022-10-31T14:03:36;8.68;;;6.40;;
55082;SDS011;40978;52.850;6.506;2022-10-31T14:06:04;12.23;;;7.55;;
55082;SDS011;40978;52.850;6.506;2022-10-31T14:08:33;12.00;;;7.00;;
55082;SDS011;40978;52.850;6.506;2022-10-31T14:11:00;11.27;;;7.78;;
55082;SDS011;40978;52.850;6.506;2022-10-31T14:13:31;11.25;;;7.65;;
55082;SDS011;40978;52.850;6.506;2022-10-31T14:16:05;12.80;;;7.78;;
55082;SDS011;40978;52.850;6.506;2022-10-31T14:18:44;15.20;;;8.32;;
55082;SDS011;40978;52.850;6.506;2022-10-31T14:21:36;14.13;;;7.93;;
55082;SDS011;40978;52.850;6.506;2022-10-31T14:24:13;10.68;;;7.40;;
55082;SDS011;40978;52.850;6.506;2022-10-31T14:29:46;12.80;;;7.32;;
55082;SDS011;40978;52.850;6.506;2022-10-31T14:40:21;12.10;;;7.57;;
55082;SDS011;40978;52.850;6.506;2022-10-31T14:43:04;9.30;;;6.35;;
55082;SDS011;40978;52.850;6.506;2022-10-31T14:46:07;8.07;;;6.13;;
55082;SDS011;40978;52.850;6.506;2022-10-31T14:51:22;13.90;;;7.15;;
55082;SDS011;40978;52.850;6.506;2022-10-31T14:53:55;12.40;;;7.03;;
55082;SDS011;40978;52.850;6.506;2022-10-31T14:56:26;11.93;;;7.38;;
55082;SDS011;40978;52.850;6.506;2022-10-31T14:58:57;10.15;;;6.95;;
55082;SDS011;40978;52.850;6.506;2022-10-31T15:01:30;13.85;;;7.40;;
55082;SDS011;40978;52.850;6.506;2022-10-31T15:07:17;10.93;;;7.18;;
55082;SDS011;40978;52.850;6.506;2022-10-31T15:09:54;15.43;;;6.80;;
55082;SDS011;40978;52.850;6.506;2022-10-31T15:14:55;9.57;;;6.35;;
55082;SDS011;40978;52.850;6.506;2022-10-31T15:17:22;9.30;;;6.05;;
55082;SDS011;40978;52.850;6.506;2022-10-31T15:19:49;12.77;;;6.07;;
55082;SDS011;40978;52.850;6.506;2022-10-31T15:22:16;8.77;;;5.97;;
55082;SDS011;40978;52.850;6.506;2022-10-31T15:24:45;9.45;;;6.50;;
55082;SDS011;40978;52.850;6.506;2022-10-31T15:27:15;8.73;;;5.60;;
55082;SDS011;40978;52.850;6.506;2022-10-31T15:29:49;13.38;;;6.40;;
55082;SDS011;40978;52.850;6.506;2022-10-31T15:34:48;11.95;;;5.80;;
55082;SDS011;40978;52.850;6.506;2022-10-31T15:37:17;10.35;;;6.47;;
55082;SDS011;40978;52.850;6.506;2022-10-31T15:39:44;10.52;;;6.30;;
55082;SDS011;40978;52.850;6.506;2022-10-31T15:44:43;8.77;;;6.20;;
55082;SDS011;40978;52.850;6.506;2022-10-31T15:47:22;9.32;;;6.20;;
55082;SDS011;40978;52.850;6.506;2022-10-31T15:49:56;10.90;;;6.18;;
55082;SDS011;40978;52.850;6.506;2022-10-31T15:57:38;10.88;;;5.95;;
55082;SDS011;40978;52.850;6.506;2022-10-31T16:00:20;9.63;;;6.97;;
55082;SDS011;40978;52.850;6.506;2022-10-31T16:03:04;8.90;;;6.38;;
55082;SDS011;40978;52.850;6.506;2022-10-31T16:05:43;10.18;;;6.22;;
55082;SDS011;40978;52.850;6.506;2022-10-31T16:08:24;10.27;;;6.38;;
55082;SDS011;40978;52.850;6.506;2022-10-31T16:11:00;10.88;;;6.43;;
55082;SDS011;40978;52.850;6.506;2022-10-31T16:13:32;9.45;;;7.30;;
55082;SDS011;40978;52.850;6.506;2022-10-31T16:16:00;11.15;;;6.93;;
55082;SDS011;40978;52.850;6.506;2022-10-31T16:18:28;12.57;;;7.30;;
55082;SDS011;40978;52.850;6.506;2022-10-31T16:20:59;11.43;;;7.55;;
55082;SDS011;40978;52.850;6.506;2022-10-31T16:23:25;9.15;;;6.88;;
55082;SDS011;40978;52.850;6.506;2022-10-31T16:25:52;14.48;;;8.15;;
55082;SDS011;40978;52.850;6.506;2022-10-31T16:28:20;10.85;;;7.65;;
55082;SDS011;40978;52.850;6.506;2022-10-31T16:30:48;9.45;;;8.30;;
55082;SDS011;40978;52.850;6.506;2022-10-31T16:35:52;14.98;;;8.70;;
55082;SDS011;40978;52.850;6.506;2022-10-31T16:38:19;15.57;;;10.50;;
55082;SDS011;40978;52.850;6.506;2022-10-31T16:40:45;12.38;;;9.70;;
55082;SDS011;40978;52.850;6.506;2022-10-31T16:43:12;15.18;;;11.02;;
55082;SDS011;40978;52.850;6.506;2022-10-31T16:45:43;15.32;;;11.13;;
55082;SDS011;40978;52.850;6.506;2022-10-31T16:48:11;21.00;;;11.70;;
55082;SDS011;40978;52.850;6.506;2022-10-31T16:50:39;12.35;;;11.02;;
55082;SDS011;40978;52.850;6.506;2022-10-31T16:53:07;13.38;;;10.93;;
55082;SDS011;40978;52.850;6.506;2022-10-31T16:55:33;17.00;;;12.38;;
55082;SDS011;40978;52.850;6.506;2022-10-31T16:58:01;18.63;;;13.52;;
55082;SDS011;40978;52.850;6.506;2022-10-31T17:00:27;19.05;;;13.30;;
55082;SDS011;40978;52.850;6.506;2022-10-31T17:02:54;17.17;;;13.48;;
55082;SDS011;40978;52.850;6.506;2022-10-31T17:12:58;22.13;;;15.55;;
55082;SDS011;40978;52.850;6.506;2022-10-31T17:15:25;21.05;;;15.23;;
55082;SDS011;40978;52.850;6.506;2022-10-31T17:17:53;19.38;;;15.13;;
55082;SDS011;40978;52.850;6.506;2022-10-31T17:20:21;22.48;;;16.65;;
55082;SDS011;40978;52.850;6.506;2022-10-31T17:22:47;24.30;;;17.27;;